Latest Coastal Weather Observations for Roebourne Airport

IDW60701

Issued at 11:05 pm WST Saturday 26 July 2014 (issued every 10 minutes, with the page automatically refreshed every 10 minutes)

About coastal observations | Map of coastal stations | Coastal observations for WA | Marine services | Other Formats
Station Details ID: 004090 Name: ROEBOURNE AERO Lat: -20.76 Lon: 117.16 Height: 10.7 m
Data from the previous 72 hours. | See also: Recent months at Roebourne Airport
Date/Time
WST
Temp

°C
Wind Pressure Rain
since 9am
mm
Weather Cloud Vis
km
Sea
Height
m
Swell
Dir
 
Speed
knots
Gust
knots
hPa Trend Height
m
Period
s
Dir
26/11:00pm 11.3 WNW 0 0 1020.7 - 0.0 - - - - - - -
26/10:30pm 11.8 CALM 0 2 1020.9 - 0.0 - - - - - - -
26/10:00pm 13.0 SSW 6 7 1020.7 - 0.0 - - - - - - -
26/09:30pm 13.3 S 7 7 1020.8 - 0.0 - - - - - - -
26/09:00pm 14.2 S 6 6 1020.5 - 0.0 - - - - - - -
26/08:30pm 14.3 SSW 6 7 1020.4 - 0.0 - - - - - - -
26/08:00pm 13.9 S 5 6 1020.2 - 0.0 - - - - - - -
26/07:30pm 14.6 S 5 6 1020.2 - 0.0 - - - - - - -
26/07:00pm 15.9 W 1 3 1020.0 - 0.0 - - - - - - -
26/06:30pm 18.4 N 4 4 1019.9 - 0.0 - - - - - - -
26/06:00pm 20.0 N 5 6 1019.7 - 0.0 - - - - - - -
26/05:30pm 22.2 NNE 6 8 1019.6 - 0.0 - - - - - - -
26/05:00pm 23.9 NNE 8 9 1019.4 - 0.0 - - - - - - -
26/04:30pm 24.8 N 8 11 1019.5 - 0.0 - - - - - - -
26/04:00pm 25.2 N 9 12 1019.4 - 0.0 - - - - - - -
26/03:30pm 25.5 NNE 10 13 1019.4 - 0.0 - - - - - - -
26/03:00pm 25.8 NE 10 14 1019.3 - 0.0 - - - - - - -
26/02:30pm 26.0 NNE 8 12 1019.7 - 0.0 - - - - - - -
26/02:00pm 26.2 NE 11 15 1019.8 - 0.0 - - - - - - -
26/01:30pm 26.1 ENE 11 14 1020.2 - 0.0 - - - - - - -
26/01:00pm 25.5 ENE 12 16 1020.5 - 0.0 - - - - - - -
26/12:30pm 25.5 ENE 13 17 1020.9 - 0.0 - - - - - - -
26/12:00pm 25.4 ENE 11 17 1021.4 - 0.0 - - - - - - -
26/11:30am 24.9 E 12 17 1021.8 - 0.0 - - - - - - -
26/11:00am 24.0 ENE 13 19 1022.1 - 0.0 - - - - - - -
26/10:30am 22.9 E 14 18 1022.6 - 0.0 - - - - - - -
26/10:00am 22.7 E 13 17 1022.8 - 0.0 - - - - - - -
26/09:30am 21.4 E 14 18 1022.9 - 0.0 - - - - - - -
26/09:00am 20.5 E 11 15 1022.7 - 0.0 - - - - - - -
26/08:30am 19.0 ESE 12 15 1022.3 - 0.0 - - - - - - -
26/08:00am 17.5 SE 9 11 1021.6 - 0.0 - - - - - - -
26/07:54am 17.1 SE 8 11 1021.6 - 0.0 - - - - - - -
26/07:30am 12.0 S 4 6 1021.4 - 0.0 - - - - - - -
26/07:00am 9.4 ESE 5 5 1021.1 - 0.0 - - - - - - -
26/06:30am 7.7 ESE 3 4 1020.9 - 0.0 - - - - - - -
26/06:00am 8.4 SE 3 4 1020.5 - 0.0 - - - - - - -
26/05:30am 7.0 CALM 0 0 1020.1 - 0.0 - - - - - - -
26/05:00am 8.0 S 3 4 1019.7 - 0.0 - - - - - - -
26/04:30am 8.6 SSW 3 4 1019.7 - 0.0 - - - - - - -
26/04:00am 8.7 S 6 6 1019.4 - 0.0 - - - - - - -
26/03:30am 8.6 S 7 8 1019.6 - 0.0 - - - - - - -
26/03:00am 8.2 S 7 7 1019.7 - 0.0 - - - - - - -
26/02:30am 9.3 SSW 5 6 1020.0 - 0.0 - - - - - - -
26/02:00am 10.3 SSW 6 6 1020.0 - 0.0 - - - - - - -
26/01:30am 8.5 SSW 7 7 1020.3 - 0.0 - - - - - - -
26/01:00am 10.5 SSW 7 7 1020.4 - 0.0 - - - - - - -
26/12:30am 9.9 SSW 7 8 1020.6 - 0.0 - - - - - - -
26/12:00am 9.9 S 8 8 1020.6 - 0.0 - - - - - - -
 
Date/Time
WST
Temp

°C
Wind Pressure Rain
since 9am
mm
Weather Cloud Vis
km
Sea
Height
m
Swell
Dir
 
Speed
knots
Gust
knots
hPa Trend Height
m
Period
s
Dir
25/11:30pm 9.9 SSW 7 8 1020.8 - 0.0 - - - - - - -
25/11:00pm 10.0 SSW 7 8 1020.7 - 0.0 - - - - - - -
25/10:30pm 11.0 SSW 7 8 1021.0 - 0.0 - - - - - - -
25/10:00pm 11.4 SSW 7 7 1021.0 - 0.0 - - - - - - -
25/09:30pm 11.7 SSW 5 6 1021.1 - 0.0 - - - - - - -
25/09:00pm 12.3 SSW 6 7 1020.9 - 0.0 - - - - - - -
25/08:30pm 12.0 SSW 5 6 1020.7 - 0.0 - - - - - - -
25/08:00pm 12.4 SSW 4 5 1020.4 - 0.0 - - - - - - -
25/07:30pm 14.1 CALM 0 0 1020.3 - 0.0 - - - - - - -
25/07:00pm 16.1 N 3 3 1019.9 - 0.0 - - - - - - -
25/06:30pm 17.0 N 5 6 1019.7 - 0.0 - - - - - - -
25/06:00pm 18.3 N 5 6 1019.5 - 0.0 - - - - - - -
25/05:30pm 19.9 NNE 8 10 1019.5 - 0.0 - - - - - - -
25/05:00pm 21.1 N 8 11 1019.5 - 0.0 - - - - - - -
25/04:30pm 21.9 N 10 13 1019.5 - 0.0 - - - - - - -
25/04:00pm 21.9 N 10 15 1019.4 - 0.0 - - - - - - -
25/03:30pm 23.0 NNE 10 13 1019.5 - 0.0 - - - - - - -
25/03:00pm 22.9 NNE 12 16 1019.5 - 0.0 - - - - - - -
25/02:30pm 22.8 NNE 11 16 1019.6 - 0.0 - - - - - - -
25/02:00pm 23.2 NE 12 17 1019.6 - 0.0 - - - - - - -
25/01:30pm 22.9 NE 13 18 1019.9 - 0.0 - - - - - - -
25/01:00pm 22.8 NE 13 19 1020.2 - 0.0 - - - - - - -
25/12:30pm 22.8 NE 14 19 1020.9 - 0.0 - - - - - - -
25/12:00pm 22.0 NE 14 19 1021.3 - 0.0 - - - - - - -
25/11:30am 21.8 E 17 23 1021.7 - 0.0 - - - - - - -
25/11:00am 20.9 E 17 23 1022.1 - 0.0 - - - - - - -
25/10:30am 20.5 E 17 23 1022.5 - 0.0 - - - - - - -
25/10:00am 20.0 E 18 25 1022.6 - 0.0 - - - - - - -
25/09:30am 19.2 E 17 25 1022.7 - 0.0 - - - - - - -
25/09:00am 18.7 E 13 18 1022.5 - 0.0 - - - - - - -
25/08:30am 17.0 ESE 14 19 1022.3 - 0.0 - - - - - - -
25/08:00am 16.0 ESE 12 16 1021.6 - 0.0 - - - - - - -
25/07:30am 14.2 ESE 11 16 1021.2 - 0.0 - - - - - - -
25/07:00am 12.7 ESE 11 14 1020.5 - 0.0 - - - - - - -
25/06:30am 13.3 ESE 13 16 1020.4 - 0.0 - - - - - - -
25/06:00am 11.4 ESE 11 13 1019.6 - 0.0 - - - - - - -
25/05:30am 10.1 ESE 10 12 1019.0 - 0.0 - - - - - - -
25/05:00am 12.7 ESE 11 12 1019.0 - 0.0 - - - - - - -
25/04:30am 11.8 ESE 9 11 1019.0 - 0.0 - - - - - - -
25/04:00am 13.3 ESE 9 11 1018.8 - 0.0 - - - - - - -
25/03:30am 10.7 SE 7 8 1019.2 - 0.0 - - - - - - -
25/03:00am 9.8 SSE 5 6 1019.1 - 0.0 - - - - - - -
25/02:30am 9.8 SSE 6 7 1019.1 - 0.0 - - - - - - -
25/02:00am 10.9 SSE 7 8 1019.3 - 0.0 - - - - - - -
25/01:30am 11.3 SSE 2 5 1019.3 - 0.0 - - - - - - -
25/01:00am 11.6 ESE 6 8 1019.3 - 0.0 - - - - - - -
25/12:30am 12.6 ESE 8 9 1019.6 - 0.0 - - - - - - -
25/12:00am 12.4 SE 8 8 1019.5 - 0.0 - - - - - - -
 
Date/Time
WST
Temp

°C
Wind Pressure Rain
since 9am
mm
Weather Cloud Vis
km
Sea
Height
m
Swell
Dir
 
Speed
knots
Gust
knots
hPa Trend Height
m
Period
s
Dir
24/11:30pm 13.7 SE 8 9 1019.5 - 0.0 - - - - - - -
24/11:00pm 15.0 SE 9 10 1019.5 - 0.0 - - - - - - -
24/10:30pm 15.4 ESE 10 11 1019.6 - 0.0 - - - - - - -
24/10:00pm 15.3 ESE 10 11 1019.6 - 0.0 - - - - - - -
24/09:30pm 12.7 ESE 8 8 1019.8 - 0.0 - - - - - - -
24/09:00pm 13.3 ESE 8 9 1019.6 - 0.0 - - - - - - -
24/08:30pm 13.4 ESE 8 9 1019.4 - 0.0 - - - - - - -
24/08:00pm 14.9 ESE 9 10 1019.1 - 0.0 - - - - - - -
24/07:30pm 16.2 ESE 9 10 1018.9 - 0.0 - - - - - - -
24/07:00pm 16.5 ESE 7 9 1018.4 - 0.0 - - - - - - -
24/06:30pm 17.5 E 6 7 1018.2 - 0.0 - - - - - - -
24/06:00pm 18.8 NNE 4 6 1017.7 - 0.0 - - - - - - -
24/05:30pm 21.3 NNE 8 10 1017.6 - 0.0 - - - - - - -
24/05:00pm 22.8 NNE 9 12 1017.5 - 0.0 - - - - - - -
24/04:30pm 23.4 NNE 11 15 1017.4 - 0.0 - - - - - - -
24/04:00pm 24.7 ENE 9 15 1017.3 - 0.0 - - - - - - -
24/03:30pm 25.2 ESE 11 17 1017.5 - 0.0 - - - - - - -
24/03:00pm 25.3 E 10 15 1017.5 - 0.0 - - - - - - -
24/02:30pm 25.3 E 11 15 1017.6 - 0.0 - - - - - - -
24/02:00pm 25.1 E 10 17 1017.8 - 0.0 - - - - - - -
24/01:30pm 24.9 E 11 18 1018.3 - 0.0 - - - - - - -
24/01:00pm 24.6 ESE 13 21 1018.7 - 0.0 - - - - - - -
24/12:30pm 24.3 E 13 19 1019.4 - 0.0 - - - - - - -
24/12:00pm 23.6 ESE 13 19 1019.8 - 0.0 - - - - - - -
24/11:30am 23.5 E 15 20 1020.1 - 0.0 - - - - - - -
24/11:00am 22.7 E 15 20 1020.4 - 0.0 - - - - - - -
24/10:30am 22.2 ESE 18 23 1020.8 - 0.0 - - - - - - -
24/10:00am 21.9 ESE 18 25 1020.9 - 0.0 - - - - - - -
24/09:30am 20.9 ESE 17 23 1021.1 - 0.0 - - - - - - -
24/09:00am 20.1 SE 17 21 1021.1 - 0.0 - - - - - - -
24/08:30am 19.3 SE 13 18 1020.8 - 0.0 - - - - - - -
24/08:00am 16.6 S 7 9 1020.3 - 0.0 - - - - - - -
24/07:30am 12.5 S 8 9 1020.0 - 0.0 - - - - - - -
24/07:00am 9.4 S 9 9 1019.5 - 0.0 - - - - - - -
24/06:30am 8.8 S 8 9 1019.2 - 0.0 - - - - - - -
24/06:00am 9.0 S 8 8 1018.6 - 0.0 - - - - - - -
24/05:30am 9.3 S 7 8 1018.5 - 0.0 - - - - - - -
24/05:00am 8.9 S 5 6 1018.1 - 0.0 - - - - - - -
24/04:30am 9.6 S 4 5 1018.2 - 0.0 - - - - - - -
24/04:00am 9.2 S 4 5 1018.0 - 0.0 - - - - - - -
24/03:30am 8.8 SSW 5 6 1018.0 - 0.0 - - - - - - -
24/03:00am 9.4 S 5 6 1018.0 - 0.0 - - - - - - -
24/02:30am 10.1 S 4 5 1018.1 - 0.0 - - - - - - -
24/02:00am 9.1 SSW 4 6 1018.1 - 0.0 - - - - - - -
24/01:30am 9.5 S 3 4 1018.3 - 0.0 - - - - - - -
24/01:00am 11.0 SW 5 6 1018.2 - 0.0 - - - - - - -
24/12:30am 10.3 SSW 6 6 1018.4 - 0.0 - - - - - - -
24/12:00am 11.1 SW 5 6 1018.2 - 0.0 - - - - - - -
 
Date/Time
WST
Temp

°C
Wind Pressure Rain
since 9am
mm
Weather Cloud Vis
km
Sea
Height
m
Swell
Dir
 
Speed
knots
Gust
knots
hPa Trend Height
m
Period
s
Dir
23/11:30pm 11.1 SW 5 5 1018.4 - 0.0 - - - - - - -

Other Formats:

Comma delimited format used in spreadsheet applications
http://www.bom.gov.au/fwo/IDW60701/IDW60701.94308.axf

JavaScript Object Notation format (JSON) in row-major order
http://www.bom.gov.au/fwo/IDW60701/IDW60701.94308.json